sensor_id;sensor_type;location;lat;lon;timestamp;P1;durP1;ratioP1;P2;durP2;ratioP2
48795;SDS011;34607;48.520;-1.330;2023-10-13T06:57:51;15.80;;;7.28;;
48795;SDS011;34607;48.520;-1.330;2023-10-13T07:00:18;11.90;;;7.32;;
48795;SDS011;34607;48.520;-1.330;2023-10-13T07:02:53;18.25;;;6.72;;
48795;SDS011;34607;48.520;-1.330;2023-10-13T07:05:33;17.08;;;7.00;;
48795;SDS011;34607;48.520;-1.330;2023-10-13T07:08:03;19.33;;;8.35;;
48795;SDS011;34607;48.520;-1.330;2023-10-13T07:10:31;14.80;;;8.00;;
48795;SDS011;34607;48.520;-1.330;2023-10-13T07:13:11;10.75;;;7.15;;
48795;SDS011;34607;48.520;-1.330;2023-10-13T07:15:39;14.00;;;7.93;;
48795;SDS011;34607;48.520;-1.330;2023-10-13T07:18:11;16.75;;;7.38;;
48795;SDS011;34607;48.520;-1.330;2023-10-13T07:20:40;15.55;;;8.00;;
48795;SDS011;34607;48.520;-1.330;2023-10-13T07:23:11;16.73;;;8.27;;
48795;SDS011;34607;48.520;-1.330;2023-10-13T07:25:43;15.15;;;9.05;;
48795;SDS011;34607;48.520;-1.330;2023-10-13T07:28:20;13.82;;;7.75;;
48795;SDS011;34607;48.520;-1.330;2023-10-13T07:30:47;16.38;;;8.13;;
48795;SDS011;34607;48.520;-1.330;2023-10-13T07:33:36;15.10;;;7.75;;
48795;SDS011;34607;48.520;-1.330;2023-10-13T07:36:03;17.02;;;8.07;;
48795;SDS011;34607;48.520;-1.330;2023-10-13T07:38:36;15.30;;;8.82;;
48795;SDS011;34607;48.520;-1.330;2023-10-13T07:41:04;14.98;;;7.70;;
48795;SDS011;34607;48.520;-1.330;2023-10-13T07:43:35;16.45;;;8.98;;
48795;SDS011;34607;48.520;-1.330;2023-10-13T07:46:03;16.33;;;9.27;;
48795;SDS011;34607;48.520;-1.330;2023-10-13T07:48:35;16.13;;;8.15;;
48795;SDS011;34607;48.520;-1.330;2023-10-13T07:51:03;17.67;;;8.40;;
48795;SDS011;34607;48.520;-1.330;2023-10-13T07:53:35;13.13;;;8.00;;
48795;SDS011;34607;48.520;-1.330;2023-10-13T07:56:04;14.98;;;8.18;;
48795;SDS011;34607;48.520;-1.330;2023-10-13T07:58:34;14.32;;;7.38;;
48795;SDS011;34607;48.520;-1.330;2023-10-13T08:01:13;16.45;;;8.75;;
48795;SDS011;34607;48.520;-1.330;2023-10-13T08:03:44;22.23;;;8.20;;
48795;SDS011;34607;48.520;-1.330;2023-10-13T08:06:11;15.15;;;7.75;;
48795;SDS011;34607;48.520;-1.330;2023-10-13T08:08:47;17.95;;;8.15;;
48795;SDS011;34607;48.520;-1.330;2023-10-13T08:11:20;13.70;;;7.28;;
48795;SDS011;34607;48.520;-1.330;2023-10-13T08:13:58;17.52;;;8.48;;
48795;SDS011;34607;48.520;-1.330;2023-10-13T08:16:26;14.75;;;7.45;;
48795;SDS011;34607;48.520;-1.330;2023-10-13T08:19:11;15.85;;;7.90;;
48795;SDS011;34607;48.520;-1.330;2023-10-13T08:21:41;24.77;;;9.55;;
48795;SDS011;34607;48.520;-1.330;2023-10-13T08:24:15;20.17;;;7.90;;
48795;SDS011;34607;48.520;-1.330;2023-10-13T08:26:50;23.65;;;9.90;;
48795;SDS011;34607;48.520;-1.330;2023-10-13T08:29:24;17.02;;;8.25;;
48795;SDS011;34607;48.520;-1.330;2023-10-13T08:32:11;14.15;;;7.85;;
48795;SDS011;34607;48.520;-1.330;2023-10-13T08:34:49;16.17;;;7.60;;
48795;SDS011;34607;48.520;-1.330;2023-10-13T08:37:34;19.23;;;7.65;;
48795;SDS011;34607;48.520;-1.330;2023-10-13T08:40:13;18.60;;;8.57;;
48795;SDS011;34607;48.520;-1.330;2023-10-13T08:43:06;19.08;;;7.22;;
48795;SDS011;34607;48.520;-1.330;2023-10-13T08:45:38;13.98;;;7.45;;
48795;SDS011;34607;48.520;-1.330;2023-10-13T08:48:25;12.25;;;7.28;;
48795;SDS011;34607;48.520;-1.330;2023-10-13T08:50:58;15.48;;;8.15;;
48795;SDS011;34607;48.520;-1.330;2023-10-13T08:53:37;20.80;;;8.70;;
48795;SDS011;34607;48.520;-1.330;2023-10-13T08:56:17;19.02;;;8.13;;
48795;SDS011;34607;48.520;-1.330;2023-10-13T08:58:59;16.45;;;8.60;;
48795;SDS011;34607;48.520;-1.330;2023-10-13T09:01:33;17.45;;;8.80;;
48795;SDS011;34607;48.520;-1.330;2023-10-13T09:04:02;19.58;;;7.95;;
48795;SDS011;34607;48.520;-1.330;2023-10-13T09:06:47;19.08;;;9.45;;
48795;SDS011;34607;48.520;-1.330;2023-10-13T09:09:28;18.55;;;7.75;;
48795;SDS011;34607;48.520;-1.330;2023-10-13T09:12:00;19.35;;;8.25;;
48795;SDS011;34607;48.520;-1.330;2023-10-13T09:14:36;17.25;;;8.43;;
48795;SDS011;34607;48.520;-1.330;2023-10-13T09:17:10;15.05;;;7.90;;
48795;SDS011;34607;48.520;-1.330;2023-10-13T09:19:45;16.38;;;7.57;;
48795;SDS011;34607;48.520;-1.330;2023-10-13T09:22:24;18.08;;;8.20;;
48795;SDS011;34607;48.520;-1.330;2023-10-13T09:25:01;14.82;;;7.55;;
48795;SDS011;34607;48.520;-1.330;2023-10-13T09:27:31;17.05;;;7.85;;
48795;SDS011;34607;48.520;-1.330;2023-10-13T09:29:59;13.07;;;7.53;;
48795;SDS011;34607;48.520;-1.330;2023-10-13T09:32:34;17.25;;;7.85;;
48795;SDS011;34607;48.520;-1.330;2023-10-13T09:35:11;12.15;;;7.22;;
48795;SDS011;34607;48.520;-1.330;2023-10-13T09:40:13;15.98;;;7.70;;
48795;SDS011;34607;48.520;-1.330;2023-10-13T09:42:59;20.13;;;6.78;;
48795;SDS011;34607;48.520;-1.330;2023-10-13T09:45:32;16.60;;;7.70;;
48795;SDS011;34607;48.520;-1.330;2023-10-13T09:48:08;18.77;;;7.90;;
48795;SDS011;34607;48.520;-1.330;2023-10-13T09:50:43;15.55;;;7.18;;
48795;SDS011;34607;48.520;-1.330;2023-10-13T09:53:11;18.85;;;6.82;;
48795;SDS011;34607;48.520;-1.330;2023-10-13T09:55:41;16.48;;;7.13;;
48795;SDS011;34607;48.520;-1.330;2023-10-13T09:58:11;14.38;;;7.65;;
48795;SDS011;34607;48.520;-1.330;2023-10-13T10:00:43;19.20;;;8.13;;
48795;SDS011;34607;48.520;-1.330;2023-10-13T10:03:23;14.30;;;6.75;;
48795;SDS011;34607;48.520;-1.330;2023-10-13T10:05:56;19.95;;;6.72;;
48795;SDS011;34607;48.520;-1.330;2023-10-13T10:08:32;18.08;;;7.10;;
48795;SDS011;34607;48.520;-1.330;2023-10-13T10:11:01;20.23;;;6.57;;
48795;SDS011;34607;48.520;-1.330;2023-10-13T10:13:44;16.52;;;6.80;;
48795;SDS011;34607;48.520;-1.330;2023-10-13T10:16:20;20.70;;;6.47;;
48795;SDS011;34607;48.520;-1.330;2023-10-13T10:19:02;18.95;;;6.40;;
48795;SDS011;34607;48.520;-1.330;2023-10-13T10:21:33;23.80;;;7.28;;
48795;SDS011;34607;48.520;-1.330;2023-10-13T10:24:01;23.50;;;6.60;;
48795;SDS011;34607;48.520;-1.330;2023-10-13T10:26:39;18.83;;;7.07;;
48795;SDS011;34607;48.520;-1.330;2023-10-13T10:29:18;21.23;;;6.20;;
48795;SDS011;34607;48.520;-1.330;2023-10-13T10:31:45;22.25;;;5.90;;
48795;SDS011;34607;48.520;-1.330;2023-10-13T10:34:15;16.42;;;7.45;;
48795;SDS011;34607;48.520;-1.330;2023-10-13T10:36:46;24.10;;;7.10;;
48795;SDS011;34607;48.520;-1.330;2023-10-13T10:39:16;18.83;;;8.70;;
48795;SDS011;34607;48.520;-1.330;2023-10-13T10:41:44;17.90;;;7.82;;
48795;SDS011;34607;48.520;-1.330;2023-10-13T10:44:17;25.15;;;8.70;;
48795;SDS011;34607;48.520;-1.330;2023-10-13T10:47:08;20.65;;;8.15;;
48795;SDS011;34607;48.520;-1.330;2023-10-13T10:49:38;22.60;;;8.15;;
48795;SDS011;34607;48.520;-1.330;2023-10-13T10:52:06;19.10;;;7.82;;
48795;SDS011;34607;48.520;-1.330;2023-10-13T10:54:43;22.85;;;8.68;;
48795;SDS011;34607;48.520;-1.330;2023-10-13T10:57:17;18.23;;;7.78;;
48795;SDS011;34607;48.520;-1.330;2023-10-13T10:59:44;21.15;;;7.93;;
48795;SDS011;34607;48.520;-1.330;2023-10-13T11:02:11;20.58;;;8.07;;
48795;SDS011;34607;48.520;-1.330;2023-10-13T11:04:54;28.77;;;11.40;;
48795;SDS011;34607;48.520;-1.330;2023-10-13T11:07:23;25.17;;;11.77;;
48795;SDS011;34607;48.520;-1.330;2023-10-13T11:09:51;27.17;;;11.32;;
48795;SDS011;34607;48.520;-1.330;2023-10-13T11:12:31;35.85;;;14.30;;
48795;SDS011;34607;48.520;-1.330;2023-10-13T11:15:00;26.48;;;9.32;;
48795;SDS011;34607;48.520;-1.330;2023-10-13T11:17:31;24.23;;;8.85;;
48795;SDS011;34607;48.520;-1.330;2023-10-13T11:20:18;21.58;;;9.05;;
48795;SDS011;34607;48.520;-1.330;2023-10-13T11:22:51;26.23;;;9.38;;
48795;SDS011;34607;48.520;-1.330;2023-10-13T11:25:22;18.35;;;6.97;;
48795;SDS011;34607;48.520;-1.330;2023-10-13T11:27:55;22.95;;;8.27;;
48795;SDS011;34607;48.520;-1.330;2023-10-13T11:30:23;21.40;;;9.10;;
48795;SDS011;34607;48.520;-1.330;2023-10-13T11:32:58;29.35;;;10.48;;
48795;SDS011;34607;48.520;-1.330;2023-10-13T11:35:32;21.55;;;8.70;;
48795;SDS011;34607;48.520;-1.330;2023-10-13T11:38:19;19.63;;;8.00;;
48795;SDS011;34607;48.520;-1.330;2023-10-13T11:40:52;22.02;;;8.57;;
48795;SDS011;34607;48.520;-1.330;2023-10-13T11:43:34;23.45;;;7.80;;
48795;SDS011;34607;48.520;-1.330;2023-10-13T11:46:18;27.00;;;9.20;;
48795;SDS011;34607;48.520;-1.330;2023-10-13T11:49:00;21.98;;;9.55;;
48795;SDS011;34607;48.520;-1.330;2023-10-13T11:51:44;23.38;;;10.32;;
48795;SDS011;34607;48.520;-1.330;2023-10-13T11:54:13;31.23;;;10.88;;
48795;SDS011;34607;48.520;-1.330;2023-10-13T11:56:41;26.80;;;10.55;;
48795;SDS011;34607;48.520;-1.330;2023-10-13T11:59:08;27.58;;;9.85;;
48795;SDS011;34607;48.520;-1.330;2023-10-13T12:01:42;25.23;;;10.98;;
48795;SDS011;34607;48.520;-1.330;2023-10-13T12:04:27;26.08;;;10.85;;
48795;SDS011;34607;48.520;-1.330;2023-10-13T12:07:00;26.25;;;11.52;;
48795;SDS011;34607;48.520;-1.330;2023-10-13T12:09:40;28.23;;;10.40;;
48795;SDS011;34607;48.520;-1.330;2023-10-13T12:12:28;27.48;;;10.50;;
48795;SDS011;34607;48.520;-1.330;2023-10-13T12:14:57;25.60;;;11.27;;
48795;SDS011;34607;48.520;-1.330;2023-10-13T12:17:34;22.02;;;10.90;;
48795;SDS011;34607;48.520;-1.330;2023-10-13T12:20:05;30.63;;;11.05;;
48795;SDS011;34607;48.520;-1.330;2023-10-13T12:22:37;23.30;;;11.68;;
48795;SDS011;34607;48.520;-1.330;2023-10-13T12:25:05;27.85;;;11.32;;
48795;SDS011;34607;48.520;-1.330;2023-10-13T12:27:44;26.88;;;11.70;;
48795;SDS011;34607;48.520;-1.330;2023-10-13T12:30:13;25.30;;;10.70;;
48795;SDS011;34607;48.520;-1.330;2023-10-13T12:32:48;26.83;;;11.30;;
48795;SDS011;34607;48.520;-1.330;2023-10-13T12:35:24;27.23;;;11.70;;
48795;SDS011;34607;48.520;-1.330;2023-10-13T12:37:57;24.48;;;10.57;;
48795;SDS011;34607;48.520;-1.330;2023-10-13T12:40:31;26.40;;;11.10;;
48795;SDS011;34607;48.520;-1.330;2023-10-13T12:43:27;31.60;;;11.93;;
48795;SDS011;34607;48.520;-1.330;2023-10-13T12:46:08;28.38;;;11.18;;
48795;SDS011;34607;48.520;-1.330;2023-10-13T12:48:52;27.85;;;11.15;;
48795;SDS011;34607;48.520;-1.330;2023-10-13T12:51:29;23.95;;;10.57;;
48795;SDS011;34607;48.520;-1.330;2023-10-13T12:54:18;29.35;;;11.40;;
48795;SDS011;34607;48.520;-1.330;2023-10-13T12:56:53;32.38;;;12.85;;
48795;SDS011;34607;48.520;-1.330;2023-10-13T12:59:22;26.08;;;13.82;;
48795;SDS011;34607;48.520;-1.330;2023-10-13T13:01:52;26.20;;;15.10;;
48795;SDS011;34607;48.520;-1.330;2023-10-13T13:04:19;37.90;;;19.33;;
48795;SDS011;34607;48.520;-1.330;2023-10-13T13:06:47;33.35;;;19.17;;
48795;SDS011;34607;48.520;-1.330;2023-10-13T13:09:15;27.42;;;17.75;;
48795;SDS011;34607;48.520;-1.330;2023-10-13T13:11:52;28.88;;;18.38;;
48795;SDS011;34607;48.520;-1.330;2023-10-13T13:14:22;31.70;;;17.58;;
48795;SDS011;34607;48.520;-1.330;2023-10-13T13:16:54;23.27;;;14.52;;
48795;SDS011;34607;48.520;-1.330;2023-10-13T13:19:29;23.05;;;14.98;;
48795;SDS011;34607;48.520;-1.330;2023-10-13T13:22:00;26.00;;;14.25;;
48795;SDS011;34607;48.520;-1.330;2023-10-13T13:24:28;35.17;;;15.98;;
48795;SDS011;34607;48.520;-1.330;2023-10-13T13:26:57;25.92;;;16.63;;
48795;SDS011;34607;48.520;-1.330;2023-10-13T13:29:28;30.30;;;16.83;;
48795;SDS011;34607;48.520;-1.330;2023-10-13T13:31:56;29.38;;;16.90;;
48795;SDS011;34607;48.520;-1.330;2023-10-13T13:34:25;35.88;;;16.95;;
48795;SDS011;34607;48.520;-1.330;2023-10-13T13:36:52;29.38;;;16.38;;
48795;SDS011;34607;48.520;-1.330;2023-10-13T13:39:20;27.38;;;14.75;;
48795;SDS011;34607;48.520;-1.330;2023-10-13T13:41:55;29.77;;;14.30;;
48795;SDS011;34607;48.520;-1.330;2023-10-13T13:44:23;25.20;;;12.98;;
48795;SDS011;34607;48.520;-1.330;2023-10-13T13:46:55;28.75;;;14.60;;
48795;SDS011;34607;48.520;-1.330;2023-10-13T13:49:23;30.30;;;13.40;;
48795;SDS011;34607;48.520;-1.330;2023-10-13T13:52:05;23.77;;;12.23;;
48795;SDS011;34607;48.520;-1.330;2023-10-13T13:54:32;27.23;;;13.50;;
48795;SDS011;34607;48.520;-1.330;2023-10-13T13:57:01;29.02;;;13.45;;
48795;SDS011;34607;48.520;-1.330;2023-10-13T13:59:29;28.73;;;12.32;;
48795;SDS011;34607;48.520;-1.330;2023-10-13T14:02:00;31.25;;;13.30;;
48795;SDS011;34607;48.520;-1.330;2023-10-13T14:04:32;29.58;;;13.27;;
48795;SDS011;34607;48.520;-1.330;2023-10-13T14:07:00;29.65;;;13.63;;
48795;SDS011;34607;48.520;-1.330;2023-10-13T14:09:32;25.13;;;14.05;;
48795;SDS011;34607;48.520;-1.330;2023-10-13T14:12:07;28.95;;;15.43;;
48795;SDS011;34607;48.520;-1.330;2023-10-13T14:14:50;24.10;;;14.15;;
48795;SDS011;34607;48.520;-1.330;2023-10-13T14:17:21;21.38;;;12.68;;
48795;SDS011;34607;48.520;-1.330;2023-10-13T14:19:54;23.42;;;11.98;;
48795;SDS011;34607;48.520;-1.330;2023-10-13T14:22:22;26.92;;;13.13;;
48795;SDS011;34607;48.520;-1.330;2023-10-13T14:24:51;23.00;;;11.65;;
48795;SDS011;34607;48.520;-1.330;2023-10-13T14:27:22;17.63;;;10.90;;
48795;SDS011;34607;48.520;-1.330;2023-10-13T14:29:51;20.27;;;10.27;;
48795;SDS011;34607;48.520;-1.330;2023-10-13T14:32:22;18.50;;;9.48;;
48795;SDS011;34607;48.520;-1.330;2023-10-13T14:34:52;18.58;;;8.50;;
48795;SDS011;34607;48.520;-1.330;2023-10-13T14:37:22;15.20;;;7.35;;
48795;SDS011;34607;48.520;-1.330;2023-10-13T14:39:55;15.00;;;7.68;;
48795;SDS011;34607;48.520;-1.330;2023-10-13T14:42:25;14.00;;;8.55;;
48795;SDS011;34607;48.520;-1.330;2023-10-13T14:44:53;15.02;;;6.05;;
48795;SDS011;34607;48.520;-1.330;2023-10-13T14:47:23;14.75;;;6.00;;
48795;SDS011;34607;48.520;-1.330;2023-10-13T14:49:52;12.48;;;4.97;;
48795;SDS011;34607;48.520;-1.330;2023-10-13T14:52:21;15.02;;;5.38;;
48795;SDS011;34607;48.520;-1.330;2023-10-13T14:54:48;11.57;;;4.47;;
48795;SDS011;34607;48.520;-1.330;2023-10-13T14:57:20;11.55;;;4.38;;
48795;SDS011;34607;48.520;-1.330;2023-10-13T14:59:52;11.43;;;4.68;;
48795;SDS011;34607;48.520;-1.330;2023-10-13T15:02:19;14.02;;;3.70;;
48795;SDS011;34607;48.520;-1.330;2023-10-13T15:04:46;11.43;;;3.85;;
48795;SDS011;34607;48.520;-1.330;2023-10-13T15:07:15;15.23;;;4.38;;
48795;SDS011;34607;48.520;-1.330;2023-10-13T15:09:43;17.35;;;3.13;;
48795;SDS011;34607;48.520;-1.330;2023-10-13T15:12:10;7.53;;;2.17;;
48795;SDS011;34607;48.520;-1.330;2023-10-13T15:14:38;7.25;;;2.53;;
48795;SDS011;34607;48.520;-1.330;2023-10-13T15:17:10;12.02;;;2.35;;
48795;SDS011;34607;48.520;-1.330;2023-10-13T15:19:41;14.82;;;2.53;;
48795;SDS011;34607;48.520;-1.330;2023-10-13T15:22:08;11.75;;;3.10;;
48795;SDS011;34607;48.520;-1.330;2023-10-13T15:24:41;8.68;;;2.10;;
48795;SDS011;34607;48.520;-1.330;2023-10-13T15:27:10;9.98;;;2.47;;
48795;SDS011;34607;48.520;-1.330;2023-10-13T15:29:37;8.65;;;2.03;;
48795;SDS011;34607;48.520;-1.330;2023-10-13T15:32:05;11.93;;;2.58;;
48795;SDS011;34607;48.520;-1.330;2023-10-13T15:34:47;6.85;;;2.40;;
48795;SDS011;34607;48.520;-1.330;2023-10-13T15:37:14;11.07;;;2.22;;
48795;SDS011;34607;48.520;-1.330;2023-10-13T15:39:41;20.88;;;3.08;;
48795;SDS011;34607;48.520;-1.330;2023-10-13T15:42:08;13.23;;;2.30;;
48795;SDS011;34607;48.520;-1.330;2023-10-13T15:44:36;10.05;;;2.50;;
48795;SDS011;34607;48.520;-1.330;2023-10-13T15:47:03;11.60;;;3.20;;
48795;SDS011;34607;48.520;-1.330;2023-10-13T15:49:30;14.30;;;3.15;;
48795;SDS011;34607;48.520;-1.330;2023-10-13T15:52:00;13.40;;;3.42;;
48795;SDS011;34607;48.520;-1.330;2023-10-13T15:54:29;17.77;;;3.67;;
48795;SDS011;34607;48.520;-1.330;2023-10-13T15:56:56;9.32;;;2.55;;
48795;SDS011;34607;48.520;-1.330;2023-10-13T15:59:24;15.30;;;3.42;;
48795;SDS011;34607;48.520;-1.330;2023-10-13T16:01:51;16.60;;;3.10;;
48795;SDS011;34607;48.520;-1.330;2023-10-13T16:04:22;12.45;;;3.10;;
48795;SDS011;34607;48.520;-1.330;2023-10-13T16:06:50;14.48;;;3.70;;
48795;SDS011;34607;48.520;-1.330;2023-10-13T16:09:18;12.75;;;3.22;;
48795;SDS011;34607;48.520;-1.330;2023-10-13T16:11:48;22.30;;;4.00;;
48795;SDS011;34607;48.520;-1.330;2023-10-13T16:14:16;14.63;;;3.33;;
48795;SDS011;34607;48.520;-1.330;2023-10-13T16:16:44;14.75;;;3.35;;
48795;SDS011;34607;48.520;-1.330;2023-10-13T16:19:13;14.38;;;3.45;;
48795;SDS011;34607;48.520;-1.330;2023-10-13T16:21:43;14.48;;;3.42;;
48795;SDS011;34607;48.520;-1.330;2023-10-13T16:24:10;8.43;;;2.45;;
48795;SDS011;34607;48.520;-1.330;2023-10-13T16:26:44;13.95;;;3.03;;
48795;SDS011;34607;48.520;-1.330;2023-10-13T16:29:14;11.90;;;2.95;;
48795;SDS011;34607;48.520;-1.330;2023-10-13T16:31:42;12.70;;;3.45;;
48795;SDS011;34607;48.520;-1.330;2023-10-13T16:34:11;14.20;;;2.83;;
48795;SDS011;34607;48.520;-1.330;2023-10-13T16:36:41;11.90;;;3.63;;
48795;SDS011;34607;48.520;-1.330;2023-10-13T16:39:09;16.30;;;3.17;;
48795;SDS011;34607;48.520;-1.330;2023-10-13T16:41:36;20.52;;;3.50;;
48795;SDS011;34607;48.520;-1.330;2023-10-13T16:44:05;16.73;;;3.83;;
48795;SDS011;34607;48.520;-1.330;2023-10-13T16:46:35;11.88;;;3.28;;
48795;SDS011;34607;48.520;-1.330;2023-10-13T16:49:02;12.07;;;3.45;;
48795;SDS011;34607;48.520;-1.330;2023-10-13T16:51:32;12.93;;;3.55;;
48795;SDS011;34607;48.520;-1.330;2023-10-13T16:53:59;12.05;;;3.33;;
48795;SDS011;34607;48.520;-1.330;2023-10-13T16:56:26;11.38;;;3.13;;
48795;SDS011;34607;48.520;-1.330;2023-10-13T16:58:53;15.25;;;4.15;;
48795;SDS011;34607;48.520;-1.330;2023-10-13T17:01:23;15.85;;;3.67;;
48795;SDS011;34607;48.520;-1.330;2023-10-13T17:03:50;14.55;;;3.65;;
48795;SDS011;34607;48.520;-1.330;2023-10-13T17:06:17;16.10;;;2.80;;
48795;SDS011;34607;48.520;-1.330;2023-10-13T17:08:47;13.30;;;3.28;;
48795;SDS011;34607;48.520;-1.330;2023-10-13T17:11:15;12.10;;;2.53;;
48795;SDS011;34607;48.520;-1.330;2023-10-13T17:13:45;10.82;;;2.97;;
48795;SDS011;34607;48.520;-1.330;2023-10-13T17:16:14;10.63;;;2.55;;
48795;SDS011;34607;48.520;-1.330;2023-10-13T17:18:44;10.23;;;3.17;;
48795;SDS011;34607;48.520;-1.330;2023-10-13T17:21:15;12.27;;;3.10;;
48795;SDS011;34607;48.520;-1.330;2023-10-13T17:23:44;13.88;;;3.38;;
48795;SDS011;34607;48.520;-1.330;2023-10-13T17:26:12;10.48;;;2.55;;
48795;SDS011;34607;48.520;-1.330;2023-10-13T17:28:39;9.25;;;2.42;;
48795;SDS011;34607;48.520;-1.330;2023-10-13T17:31:06;12.38;;;3.42;;
48795;SDS011;34607;48.520;-1.330;2023-10-13T17:33:34;18.35;;;3.92;;
48795;SDS011;34607;48.520;-1.330;2023-10-13T17:36:06;13.68;;;3.08;;
48795;SDS011;34607;48.520;-1.330;2023-10-13T17:38:34;13.35;;;3.65;;
48795;SDS011;34607;48.520;-1.330;2023-10-13T17:41:02;11.07;;;2.50;;
48795;SDS011;34607;48.520;-1.330;2023-10-13T17:43:31;9.75;;;3.03;;
48795;SDS011;34607;48.520;-1.330;2023-10-13T17:46:06;10.50;;;2.47;;
48795;SDS011;34607;48.520;-1.330;2023-10-13T17:48:34;8.90;;;2.20;;
48795;SDS011;34607;48.520;-1.330;2023-10-13T17:51:04;8.50;;;2.20;;
48795;SDS011;34607;48.520;-1.330;2023-10-13T17:53:35;11.63;;;2.33;;
48795;SDS011;34607;48.520;-1.330;2023-10-13T17:56:03;7.72;;;2.10;;
48795;SDS011;34607;48.520;-1.330;2023-10-13T17:58:31;8.57;;;2.28;;
48795;SDS011;34607;48.520;-1.330;2023-10-13T18:00:58;11.80;;;2.20;;
48795;SDS011;34607;48.520;-1.330;2023-10-13T18:03:31;8.20;;;2.05;;
48795;SDS011;34607;48.520;-1.330;2023-10-13T18:06:00;8.13;;;2.65;;
48795;SDS011;34607;48.520;-1.330;2023-10-13T18:08:28;7.20;;;1.60;;
48795;SDS011;34607;48.520;-1.330;2023-10-13T18:10:56;11.45;;;2.95;;
48795;SDS011;34607;48.520;-1.330;2023-10-13T18:13:24;9.88;;;2.08;;
48795;SDS011;34607;48.520;-1.330;2023-10-13T18:15:51;8.20;;;2.08;;
48795;SDS011;34607;48.520;-1.330;2023-10-13T18:18:20;10.52;;;2.58;;
48795;SDS011;34607;48.520;-1.330;2023-10-13T18:20:47;8.27;;;1.92;;
48795;SDS011;34607;48.520;-1.330;2023-10-13T18:23:14;14.90;;;3.65;;
48795;SDS011;34607;48.520;-1.330;2023-10-13T18:25:43;8.00;;;2.33;;
48795;SDS011;34607;48.520;-1.330;2023-10-13T18:28:12;14.98;;;3.60;;
48795;SDS011;34607;48.520;-1.330;2023-10-13T18:30:39;9.93;;;2.30;;
48795;SDS011;34607;48.520;-1.330;2023-10-13T18:33:06;13.20;;;3.65;;
48795;SDS011;34607;48.520;-1.330;2023-10-13T18:35:36;16.77;;;3.03;;
48795;SDS011;34607;48.520;-1.330;2023-10-13T18:38:05;9.35;;;1.98;;
48795;SDS011;34607;48.520;-1.330;2023-10-13T18:40:35;12.15;;;2.67;;
48795;SDS011;34607;48.520;-1.330;2023-10-13T18:43:02;12.48;;;2.42;;
48795;SDS011;34607;48.520;-1.330;2023-10-13T18:45:31;6.22;;;1.90;;
48795;SDS011;34607;48.520;-1.330;2023-10-13T18:47:58;9.40;;;2.15;;
48795;SDS011;34607;48.520;-1.330;2023-10-13T18:50:27;11.40;;;2.88;;
48795;SDS011;34607;48.520;-1.330;2023-10-13T18:52:55;6.03;;;2.38;;
48795;SDS011;34607;48.520;-1.330;2023-10-13T18:55:23;8.30;;;1.60;;
48795;SDS011;34607;48.520;-1.330;2023-10-13T18:57:51;6.93;;;1.45;;
48795;SDS011;34607;48.520;-1.330;2023-10-13T19:00:20;7.35;;;2.10;;
48795;SDS011;34607;48.520;-1.330;2023-10-13T19:02:50;9.02;;;2.05;;
48795;SDS011;34607;48.520;-1.330;2023-10-13T19:05:17;6.35;;;1.48;;
48795;SDS011;34607;48.520;-1.330;2023-10-13T19:07:45;8.68;;;1.42;;
48795;SDS011;34607;48.520;-1.330;2023-10-13T19:10:14;6.22;;;1.50;;
48795;SDS011;34607;48.520;-1.330;2023-10-13T19:12:41;6.72;;;1.40;;
48795;SDS011;34607;48.520;-1.330;2023-10-13T19:15:09;6.45;;;1.77;;
48795;SDS011;34607;48.520;-1.330;2023-10-13T19:17:39;3.65;;;1.30;;
48795;SDS011;34607;48.520;-1.330;2023-10-13T19:20:08;6.93;;;1.67;;
48795;SDS011;34607;48.520;-1.330;2023-10-13T19:22:41;7.93;;;2.95;;
48795;SDS011;34607;48.520;-1.330;2023-10-13T19:25:10;6.18;;;1.65;;
48795;SDS011;34607;48.520;-1.330;2023-10-13T19:27:37;7.38;;;1.70;;
48795;SDS011;34607;48.520;-1.330;2023-10-13T19:30:05;5.97;;;1.60;;
48795;SDS011;34607;48.520;-1.330;2023-10-13T19:32:32;5.95;;;1.35;;
48795;SDS011;34607;48.520;-1.330;2023-10-13T19:35:05;9.85;;;1.67;;
48795;SDS011;34607;48.520;-1.330;2023-10-13T19:37:34;8.98;;;1.58;;
48795;SDS011;34607;48.520;-1.330;2023-10-13T19:40:07;7.28;;;1.52;;
48795;SDS011;34607;48.520;-1.330;2023-10-13T19:42:36;6.10;;;1.58;;
48795;SDS011;34607;48.520;-1.330;2023-10-13T19:45:06;10.00;;;2.17;;
48795;SDS011;34607;48.520;-1.330;2023-10-13T19:47:38;5.55;;;1.85;;
48795;SDS011;34607;48.520;-1.330;2023-10-13T19:50:06;5.60;;;1.27;;
48795;SDS011;34607;48.520;-1.330;2023-10-13T19:52:39;5.07;;;1.50;;
48795;SDS011;34607;48.520;-1.330;2023-10-13T19:55:07;6.55;;;1.88;;
48795;SDS011;34607;48.520;-1.330;2023-10-13T19:57:41;5.30;;;1.30;;
48795;SDS011;34607;48.520;-1.330;2023-10-13T20:00:10;6.20;;;1.50;;
48795;SDS011;34607;48.520;-1.330;2023-10-13T20:02:46;5.40;;;1.40;;
48795;SDS011;34607;48.520;-1.330;2023-10-13T20:05:17;3.00;;;0.95;;
48795;SDS011;34607;48.520;-1.330;2023-10-13T20:07:45;4.30;;;1.10;;
48795;SDS011;34607;48.520;-1.330;2023-10-13T20:10:13;7.88;;;1.40;;
48795;SDS011;34607;48.520;-1.330;2023-10-13T20:12:40;5.72;;;1.60;;
48795;SDS011;34607;48.520;-1.330;2023-10-13T20:15:09;5.05;;;1.40;;
48795;SDS011;34607;48.520;-1.330;2023-10-13T20:17:37;5.28;;;1.23;;
48795;SDS011;34607;48.520;-1.330;2023-10-13T20:20:07;4.25;;;1.05;;
48795;SDS011;34607;48.520;-1.330;2023-10-13T20:22:38;3.70;;;0.80;;
48795;SDS011;34607;48.520;-1.330;2023-10-13T20:25:05;2.17;;;0.82;;
48795;SDS011;34607;48.520;-1.330;2023-10-13T20:27:33;3.83;;;0.95;;
48795;SDS011;34607;48.520;-1.330;2023-10-13T20:30:01;1.90;;;1.05;;
48795;SDS011;34607;48.520;-1.330;2023-10-13T20:32:33;1.77;;;0.70;;
48795;SDS011;34607;48.520;-1.330;2023-10-13T20:35:01;2.92;;;0.70;;
48795;SDS011;34607;48.520;-1.330;2023-10-13T20:37:28;3.58;;;0.70;;
48795;SDS011;34607;48.520;-1.330;2023-10-13T20:39:57;2.65;;;0.60;;
48795;SDS011;34607;48.520;-1.330;2023-10-13T20:42:25;2.95;;;0.75;;
48795;SDS011;34607;48.520;-1.330;2023-10-13T20:44:53;3.83;;;0.73;;
48795;SDS011;34607;48.520;-1.330;2023-10-13T20:47:21;4.70;;;0.68;;
48795;SDS011;34607;48.520;-1.330;2023-10-13T20:49:48;6.82;;;0.98;;
48795;SDS011;34607;48.520;-1.330;2023-10-13T20:52:18;3.55;;;0.90;;
48795;SDS011;34607;48.520;-1.330;2023-10-13T20:54:45;1.73;;;0.70;;
48795;SDS011;34607;48.520;-1.330;2023-10-13T20:57:15;4.43;;;0.70;;
48795;SDS011;34607;48.520;-1.330;2023-10-13T20:59:43;1.90;;;0.60;;
48795;SDS011;34607;48.520;-1.330;2023-10-13T21:02:11;3.50;;;1.10;;
